Time;durP1;ratioP1;P1;durP2;ratioP2;P2;SDS_P1;SDS_P2;PMS_P1;PMS_P2;Temp;Humidity;BMP_temperature;BMP_pressure;BME280_temperature;BME280_humidity;BME280_pressure;Samples;Min_cycle;Max_cycle;Signal;HPM_P1;HPM_P2
2022/03/24 00:01:52;;;;;;;6.43;4.70;;;;;;;;;;6333034;22;20504;-81
2022/03/24 00:04:18;;;;;;;5.68;4.72;;;;;;;;;;6332969;22;19999;-78
2022/03/24 00:06:44;;;;;;;6.07;4.78;;;;;;;;;;6333414;22;20003;-77
2022/03/24 00:09:10;;;;;;;5.47;4.68;;;;;;;;;;6333092;22;20018;-77
2022/03/24 00:11:37;;;;;;;6.05;5.00;;;;;;;;;;6334195;22;20006;-79
2022/03/24 00:14:04;;;;;;;5.95;4.85;;;;;;;;;;6333106;22;20006;-77
2022/03/24 00:16:30;;;;;;;5.72;4.63;;;;;;;;;;6332797;22;20011;-80
2022/03/24 00:18:56;;;;;;;5.63;4.40;;;;;;;;;;6333283;22;20026;-77
2022/03/24 00:21:24;;;;;;;5.57;4.60;;;;;;;;;;6333093;22;20003;-77
2022/03/24 00:23:50;;;;;;;5.47;4.43;;;;;;;;;;6333104;22;20056;-81
2022/03/24 00:26:16;;;;;;;6.15;4.50;;;;;;;;;;6332818;22;20369;-81
2022/03/24 00:28:42;;;;;;;5.15;4.25;;;;;;;;;;6332641;22;19995;-79
2022/03/24 00:31:09;;;;;;;14.32;4.97;;;;;;;;;;6333863;22;20010;-80
2022/03/24 00:33:38;;;;;;;5.43;4.50;;;;;;;;;;6333735;22;20334;-79
2022/03/24 00:36:04;;;;;;;6.20;4.70;;;;;;;;;;6333645;22;20006;-79
2022/03/24 00:38:30;;;;;;;5.80;4.45;;;;;;;;;;6334676;22;20002;-78
2022/03/24 00:40:57;;;;;;;7.90;4.32;;;;;;;;;;6334363;22;20357;-77
2022/03/24 00:43:23;;;;;;;4.47;4.07;;;;;;;;;;6334342;22;20512;-80
2022/03/24 00:45:51;;;;;;;5.53;4.70;;;;;;;;;;6334695;22;20034;-80
2022/03/24 00:48:17;;;;;;;4.95;4.43;;;;;;;;;;6334602;22;20003;-80
2022/03/24 00:50:44;;;;;;;5.90;4.53;;;;;;;;;;6334320;22;20508;-81
2022/03/24 00:53:11;;;;;;;5.22;4.72;;;;;;;;;;6335684;22;19995;-78
2022/03/24 00:55:38;;;;;;;4.68;4.20;;;;;;;;;;6307961;22;20519;-77
2022/03/24 00:58:04;;;;;;;5.28;4.50;;;;;;;;;;6334264;22;20006;-78
2022/03/24 01:00:30;;;;;;;5.05;4.35;;;;;;;;;;6334097;22;20441;-78
2022/03/24 01:02:58;;;;;;;5.47;4.50;;;;;;;;;;6334790;22;19999;-78
2022/03/24 01:05:27;;;;;;;10.45;4.45;;;;;;;;;;6334242;22;20015;-76
2022/03/24 01:07:54;;;;;;;6.75;4.53;;;;;;;;;;6334625;22;20426;-79
2022/03/24 01:10:21;;;;;;;6.55;4.40;;;;;;;;;;6334404;22;20010;-77
2022/03/24 01:12:47;;;;;;;5.75;4.75;;;;;;;;;;6334256;22;19995;-76
2022/03/24 01:15:17;;;;;;;7.05;4.90;;;;;;;;;;6334327;22;20014;-76
2022/03/24 01:17:44;;;;;;;6.15;4.60;;;;;;;;;;6334190;22;19995;-78
2022/03/24 01:20:11;;;;;;;5.88;4.43;;;;;;;;;;6307493;22;20022;-79
2022/03/24 01:22:37;;;;;;;7.72;4.50;;;;;;;;;;6334889;22;20079;-80
2022/03/24 01:25:04;;;;;;;7.40;4.82;;;;;;;;;;6334012;22;20320;-77
2022/03/24 01:27:30;;;;;;;5.53;4.43;;;;;;;;;;6333913;22;20010;-80
2022/03/24 01:29:56;;;;;;;6.30;4.80;;;;;;;;;;6334498;22;20336;-81
2022/03/24 01:32:23;;;;;;;6.55;4.80;;;;;;;;;;6334191;22;19999;-81
2022/03/24 01:34:50;;;;;;;5.03;4.50;;;;;;;;;;6333636;22;20025;-80
2022/03/24 01:37:16;;;;;;;5.35;4.70;;;;;;;;;;6334390;22;20003;-80
2022/03/24 01:39:43;;;;;;;5.05;4.50;;;;;;;;;;6334861;22;20006;-77
2022/03/24 01:42:09;;;;;;;6.35;4.57;;;;;;;;;;6335070;22;20378;-77
2022/03/24 01:44:35;;;;;;;6.63;4.63;;;;;;;;;;6334128;22;19999;-79
2022/03/24 01:47:02;;;;;;;4.95;4.40;;;;;;;;;;6333365;22;20007;-77
2022/03/24 01:49:30;;;;;;;7.72;4.65;;;;;;;;;;6334203;22;20065;-79
2022/03/24 01:51:56;;;;;;;6.43;4.60;;;;;;;;;;6333656;22;20070;-78
2022/03/24 01:54:23;;;;;;;5.88;4.50;;;;;;;;;;6333974;22;19995;-81
2022/03/24 01:56:49;;;;;;;6.20;4.70;;;;;;;;;;6333763;22;20003;-81
2022/03/24 01:59:16;;;;;;;5.93;4.47;;;;;;;;;;6333872;22;20363;-77
2022/03/24 02:01:43;;;;;;;5.95;4.35;;;;;;;;;;6334989;22;19995;-81
2022/03/24 02:04:09;;;;;;;6.07;4.32;;;;;;;;;;6334805;22;20507;-78
2022/03/24 02:06:36;;;;;;;4.63;4.22;;;;;;;;;;6333682;22;20036;-79
2022/03/24 02:09:03;;;;;;;7.03;4.45;;;;;;;;;;6333793;22;19995;-82
2022/03/24 02:11:30;;;;;;;7.80;4.25;;;;;;;;;;6305775;22;20006;-79
2022/03/24 02:13:57;;;;;;;7.10;4.37;;;;;;;;;;6334026;22;20001;-78
2022/03/24 02:16:27;;;;;;;6.13;4.60;;;;;;;;;;6333481;22;20017;-77
2022/03/24 02:18:59;;;;;;;5.68;4.35;;;;;;;;;;6333917;22;20075;-81
2022/03/24 02:21:28;;;;;;;5.75;4.50;;;;;;;;;;6333626;22;20026;-79
2022/03/24 02:23:54;;;;;;;4.82;4.22;;;;;;;;;;6333712;22;19999;-81
2022/03/24 02:26:20;;;;;;;6.07;4.47;;;;;;;;;;6333675;22;20007;-80
2022/03/24 02:28:46;;;;;;;4.93;4.32;;;;;;;;;;6333858;22;20001;-78
2022/03/24 02:31:13;;;;;;;7.68;4.85;;;;;;;;;;6306776;22;20009;-80
2022/03/24 02:33:40;;;;;;;5.55;4.25;;;;;;;;;;6333433;22;20002;-76
2022/03/24 02:36:07;;;;;;;6.25;5.00;;;;;;;;;;6333283;22;20005;-78
2022/03/24 02:38:33;;;;;;;5.07;4.22;;;;;;;;;;6333931;22;20073;-76
2022/03/24 02:40:59;;;;;;;6.00;4.32;;;;;;;;;;6333571;22;20091;-82
2022/03/24 02:43:25;;;;;;;5.63;4.28;;;;;;;;;;6333832;22;20331;-76
2022/03/24 02:45:53;;;;;;;5.68;4.45;;;;;;;;;;6333421;22;20013;-77
2022/03/24 02:48:21;;;;;;;5.22;4.38;;;;;;;;;;6333505;22;20077;-78
2022/03/24 02:50:49;;;;;;;5.75;4.43;;;;;;;;;;6305397;22;20006;-76
2022/03/24 02:53:16;;;;;;;5.07;4.40;;;;;;;;;;6334751;22;20474;-81
2022/03/24 02:55:42;;;;;;;4.82;4.18;;;;;;;;;;6306232;22;20010;-81
2022/03/24 02:58:08;;;;;;;6.40;4.45;;;;;;;;;;6333052;22;20006;-79
2022/03/24 03:00:34;;;;;;;4.93;4.35;;;;;;;;;;6333287;22;20003;-79
2022/03/24 03:03:00;;;;;;;5.63;4.07;;;;;;;;;;6333722;22;20022;-82
2022/03/24 03:05:26;;;;;;;5.57;4.35;;;;;;;;;;6333022;22;20007;-78
2022/03/24 03:07:52;;;;;;;5.70;4.68;;;;;;;;;;6333552;22;20190;-77
2022/03/24 03:10:18;;;;;;;5.53;4.30;;;;;;;;;;6333409;22;20010;-76
2022/03/24 03:12:46;;;;;;;4.95;4.32;;;;;;;;;;6334503;22;19999;-78
2022/03/24 03:15:12;;;;;;;8.27;4.40;;;;;;;;;;6333193;22;20009;-77
2022/03/24 03:17:38;;;;;;;5.28;4.20;;;;;;;;;;6332884;22;20007;-77
2022/03/24 03:20:05;;;;;;;4.97;4.07;;;;;;;;;;6332685;22;19999;-77
2022/03/24 03:22:32;;;;;;;8.10;4.50;;;;;;;;;;6333386;22;20003;-78
2022/03/24 03:24:59;;;;;;;6.22;4.50;;;;;;;;;;6333037;22;20007;-76
2022/03/24 03:27:27;;;;;;;5.68;4.47;;;;;;;;;;6333051;22;20003;-78
2022/03/24 03:29:53;;;;;;;8.98;4.10;;;;;;;;;;6332865;22;20007;-80
2022/03/24 03:32:21;;;;;;;10.93;5.10;;;;;;;;;;6332996;22;20512;-78
2022/03/24 03:34:48;;;;;;;7.45;4.50;;;;;;;;;;6306639;22;20396;-77
2022/03/24 03:37:14;;;;;;;8.82;4.60;;;;;;;;;;6306008;22;20032;-81
2022/03/24 03:39:40;;;;;;;5.35;4.20;;;;;;;;;;6333145;22;19999;-76
2022/03/24 03:42:08;;;;;;;5.20;4.15;;;;;;;;;;6333116;22;20009;-78
2022/03/24 03:44:34;;;;;;;7.90;4.65;;;;;;;;;;6332977;22;20006;-79
2022/03/24 03:47:01;;;;;;;7.40;4.40;;;;;;;;;;6333037;22;20006;-80
2022/03/24 03:49:27;;;;;;;9.80;4.88;;;;;;;;;;6305371;22;20006;-78
2022/03/24 03:51:54;;;;;;;7.40;4.30;;;;;;;;;;6305238;22;20006;-80
2022/03/24 03:54:21;;;;;;;7.03;4.40;;;;;;;;;;6333506;22;20005;-77
2022/03/24 03:56:47;;;;;;;8.95;4.40;;;;;;;;;;6333800;22;19995;-78
2022/03/24 03:59:13;;;;;;;18.30;4.88;;;;;;;;;;6332620;22;20015;-78
2022/03/24 04:01:39;;;;;;;8.38;4.25;;;;;;;;;;6332869;22;20001;-79
2022/03/24 04:04:12;;;;;;;6.30;4.35;;;;;;;;;;6305856;22;20052;-77
2022/03/24 04:06:38;;;;;;;6.85;4.30;;;;;;;;;;6332955;22;20014;-77
2022/03/24 04:09:04;;;;;;;8.93;4.50;;;;;;;;;;6332955;22;20046;-80
2022/03/24 04:11:30;;;;;;;7.43;4.15;;;;;;;;;;6334379;22;20003;-78
2022/03/24 04:13:56;;;;;;;9.05;4.65;;;;;;;;;;6334753;22;19995;-78
2022/03/24 04:16:22;;;;;;;5.20;4.30;;;;;;;;;;6334520;22;20419;-79
2022/03/24 04:18:49;;;;;;;6.18;4.30;;;;;;;;;;6336084;22;20023;-78
2022/03/24 04:21:16;;;;;;;5.93;4.60;;;;;;;;;;6334749;22;20331;-79
2022/03/24 04:23:42;;;;;;;6.30;4.07;;;;;;;;;;6334771;22;20392;-77
2022/03/24 04:26:12;;;;;;;8.15;4.70;;;;;;;;;;6333770;22;20038;-79
2022/03/24 04:28:38;;;;;;;7.20;4.30;;;;;;;;;;6333912;22;20312;-81
2022/03/24 04:31:04;;;;;;;6.20;4.32;;;;;;;;;;6334689;22;20370;-81
2022/03/24 04:33:31;;;;;;;7.55;4.65;;;;;;;;;;6334726;22;20025;-78
2022/03/24 04:36:00;;;;;;;6.40;4.63;;;;;;;;;;6334781;22;20002;-80
2022/03/24 04:38:26;;;;;;;7.20;4.30;;;;;;;;;;6334672;22;19995;-79
2022/03/24 04:40:53;;;;;;;6.18;4.53;;;;;;;;;;6307597;22;20347;-76
2022/03/24 04:43:19;;;;;;;7.05;4.50;;;;;;;;;;6335488;22;19994;-81
2022/03/24 04:45:45;;;;;;;8.20;4.70;;;;;;;;;;6334492;22;20007;-78
2022/03/24 04:48:11;;;;;;;5.75;4.53;;;;;;;;;;6334673;22;19995;-78
2022/03/24 04:50:38;;;;;;;14.35;4.60;;;;;;;;;;6334358;22;20003;-80
2022/03/24 04:53:04;;;;;;;7.15;4.63;;;;;;;;;;6334617;22;19999;-76
2022/03/24 04:55:30;;;;;;;12.32;4.65;;;;;;;;;;6306757;22;19998;-79
2022/03/24 04:57:56;;;;;;;7.07;4.50;;;;;;;;;;6334326;22;20010;-76
2022/03/24 05:00:22;;;;;;;9.23;4.32;;;;;;;;;;6335469;22;19994;-76
2022/03/24 05:02:48;;;;;;;8.50;4.22;;;;;;;;;;6306572;22;20085;-81
2022/03/24 05:05:17;;;;;;;6.75;4.90;;;;;;;;;;6334632;22;20122;-76
2022/03/24 05:07:43;;;;;;;11.05;4.32;;;;;;;;;;6334387;22;20033;-76
2022/03/24 05:10:09;;;;;;;8.75;4.55;;;;;;;;;;6333948;22;20066;-76
2022/03/24 05:12:38;;;;;;;6.75;4.75;;;;;;;;;;6334046;22;20440;-78
2022/03/24 05:15:04;;;;;;;11.38;4.88;;;;;;;;;;6334294;22;20111;-78
2022/03/24 05:17:30;;;;;;;10.20;4.20;;;;;;;;;;6334414;22;20002;-75
2022/03/24 05:19:56;;;;;;;11.63;5.30;;;;;;;;;;6306651;22;20002;-80
2022/03/24 05:22:23;;;;;;;16.02;5.03;;;;;;;;;;6334693;22;20002;-78
2022/03/24 05:24:49;;;;;;;14.70;4.63;;;;;;;;;;6333679;22;20007;-79
2022/03/24 05:27:15;;;;;;;8.20;4.68;;;;;;;;;;6334291;22;20256;-76
2022/03/24 05:29:41;;;;;;;11.82;4.68;;;;;;;;;;6334395;22;20092;-75
2022/03/24 05:32:07;;;;;;;11.98;4.72;;;;;;;;;;6334283;22;20003;-78
2022/03/24 05:34:33;;;;;;;7.68;4.55;;;;;;;;;;6334368;22;20033;-78
2022/03/24 05:36:59;;;;;;;6.40;4.60;;;;;;;;;;6334099;22;20344;-79
2022/03/24 05:39:26;;;;;;;8.73;5.45;;;;;;;;;;6334617;22;20053;-79
2022/03/24 05:41:52;;;;;;;12.98;6.55;;;;;;;;;;6335323;22;20003;-79
2022/03/24 05:44:18;;;;;;;10.77;6.60;;;;;;;;;;6334080;22;20002;-77
2022/03/24 05:46:45;;;;;;;11.70;6.88;;;;;;;;;;6334016;22;20351;-83
2022/03/24 05:49:15;;;;;;;16.60;7.75;;;;;;;;;;6306637;22;20078;-81
2022/03/24 05:51:42;;;;;;;11.02;7.45;;;;;;;;;;6333983;22;20003;-82
2022/03/24 05:54:09;;;;;;;11.30;7.43;;;;;;;;;;6334017;22;19999;-79
2022/03/24 05:56:35;;;;;;;15.60;6.95;;;;;;;;;;6333990;22;20068;-82
2022/03/24 05:59:01;;;;;;;9.10;6.80;;;;;;;;;;6334089;22;20006;-82
2022/03/24 06:01:27;;;;;;;9.93;7.40;;;;;;;;;;6334012;22;20006;-80
2022/03/24 06:03:53;;;;;;;10.40;7.25;;;;;;;;;;6334568;22;20007;-83
2022/03/24 06:06:22;;;;;;;21.90;7.47;;;;;;;;;;6333464;22;20007;-81
2022/03/24 06:08:52;;;;;;;12.48;7.15;;;;;;;;;;6333350;22;20003;-80
2022/03/24 06:11:18;;;;;;;11.68;7.60;;;;;;;;;;6333693;22;20052;-79
2022/03/24 06:13:45;;;;;;;10.63;7.90;;;;;;;;;;6332482;22;20006;-79
2022/03/24 06:16:13;;;;;;;15.15;8.15;;;;;;;;;;6332077;22;20516;-79
2022/03/24 06:18:39;;;;;;;12.02;8.00;;;;;;;;;;6332447;22;19999;-79
2022/03/24 06:21:07;;;;;;;10.25;7.32;;;;;;;;;;6332183;22;20007;-79
2022/03/24 06:23:33;;;;;;;11.40;7.93;;;;;;;;;;6332828;22;19999;-79
2022/03/24 06:25:59;;;;;;;15.00;7.60;;;;;;;;;;6330132;22;20015;-81
2022/03/24 06:28:25;;;;;;;13.07;8.20;;;;;;;;;;6330190;22;20431;-79
2022/03/24 06:30:52;;;;;;;10.35;7.47;;;;;;;;;;6308248;22;20378;-82
2022/03/24 06:33:18;;;;;;;9.88;7.60;;;;;;;;;;6306128;22;20003;-83
2022/03/24 06:35:45;;;;;;;11.32;7.93;;;;;;;;;;6331976;22;20446;-79
2022/03/24 06:38:11;;;;;;;15.95;8.48;;;;;;;;;;6331135;22;20335;-77
2022/03/24 06:40:38;;;;;;;10.43;7.05;;;;;;;;;;6332701;22;19998;-78
2022/03/24 06:43:05;;;;;;;11.90;7.10;;;;;;;;;;6333160;22;20010;-78
2022/03/24 06:45:32;;;;;;;14.88;8.00;;;;;;;;;;6333234;22;20014;-78
2022/03/24 06:47:58;;;;;;;13.00;9.00;;;;;;;;;;6333016;22;20002;-77
2022/03/24 06:50:24;;;;;;;12.80;8.02;;;;;;;;;;6334204;22;20007;-79
2022/03/24 06:52:50;;;;;;;11.73;8.52;;;;;;;;;;6305677;22;20335;-79
2022/03/24 06:55:16;;;;;;;12.63;8.48;;;;;;;;;;6333622;22;20007;-79
2022/03/24 06:57:43;;;;;;;14.07;9.13;;;;;;;;;;6333392;22;20026;-78
2022/03/24 07:00:13;;;;;;;13.68;8.77;;;;;;;;;;6333378;22;20006;-78
2022/03/24 07:02:40;;;;;;;13.40;8.35;;;;;;;;;;6333667;22;20078;-80
2022/03/24 07:05:08;;;;;;;10.07;7.28;;;;;;;;;;6309541;22;20006;-78
2022/03/24 07:07:34;;;;;;;10.48;7.55;;;;;;;;;;6333777;22;20081;-81
2022/03/24 07:10:00;;;;;;;13.65;7.03;;;;;;;;;;6333491;22;20021;-78
2022/03/24 07:12:26;;;;;;;9.32;6.70;;;;;;;;;;6334336;22;20002;-78
2022/03/24 07:14:52;;;;;;;14.05;6.72;;;;;;;;;;6332921;22;20005;-79
2022/03/24 07:17:19;;;;;;;11.60;6.57;;;;;;;;;;6333162;22;20194;-79
2022/03/24 07:19:45;;;;;;;10.15;5.60;;;;;;;;;;6333144;22;19999;-77
2022/03/24 07:22:12;;;;;;;10.13;5.75;;;;;;;;;;6323093;22;20010;-79
2022/03/24 07:24:38;;;;;;;8.65;5.95;;;;;;;;;;6332155;22;20021;-79
2022/03/24 07:27:05;;;;;;;9.85;5.97;;;;;;;;;;6331099;22;20006;-80
2022/03/24 07:29:31;;;;;;;10.77;6.20;;;;;;;;;;6331879;22;19998;-79
2022/03/24 07:31:57;;;;;;;10.43;5.78;;;;;;;;;;6333133;22;20010;-80
2022/03/24 07:34:24;;;;;;;7.68;5.85;;;;;;;;;;6332510;22;20069;-79
2022/03/24 07:36:50;;;;;;;11.32;6.20;;;;;;;;;;6332356;22;20448;-79
2022/03/24 07:39:16;;;;;;;7.63;5.82;;;;;;;;;;6332470;22;20002;-81
2022/03/24 07:41:42;;;;;;;10.80;5.22;;;;;;;;;;6332520;22;20006;-79
2022/03/24 07:44:08;;;;;;;10.88;5.35;;;;;;;;;;6332008;22;19995;-81
2022/03/24 07:46:34;;;;;;;7.78;5.57;;;;;;;;;;6334241;22;20015;-80
2022/03/24 07:49:01;;;;;;;9.60;5.22;;;;;;;;;;6338559;22;19995;-79
2022/03/24 07:51:31;;;;;;;8.63;5.32;;;;;;;;;;6336777;22;20052;-79
2022/03/24 07:53:59;;;;;;;22.98;5.78;;;;;;;;;;6336172;22;19998;-78
2022/03/24 07:56:25;;;;;;;;;;;;;;;;;;6335979;22;20336;-79
2022/03/24 07:58:52;;;;;;;12.65;5.30;;;;;;;;;;6335369;22;19902;-79
2022/03/24 08:01:26;;;;;;;5.75;5.15;;;;;;;;;;6335163;22;20006;-79
2022/03/24 08:03:53;;;;;;;7.38;5.28;;;;;;;;;;6335027;22;19999;-79
2022/03/24 08:06:20;;;;;;;6.57;5.35;;;;;;;;;;6334906;22;20068;-79
2022/03/24 08:08:46;;;;;;;9.27;6.05;;;;;;;;;;6335156;22;20052;-78
2022/03/24 08:11:12;;;;;;;8.20;5.60;;;;;;;;;;6335122;22;20003;-78
2022/03/24 08:13:38;;;;;;;7.88;5.55;;;;;;;;;;6334991;22;20017;-79
2022/03/24 08:16:05;;;;;;;7.82;5.38;;;;;;;;;;6334875;22;20019;-77
2022/03/24 08:18:31;;;;;;;7.00;5.75;;;;;;;;;;6336261;22;20120;-78
2022/03/24 08:20:57;;;;;;;6.70;5.45;;;;;;;;;;6336133;22;20404;-79
2022/03/24 08:23:23;;;;;;;9.43;5.63;;;;;;;;;;6335086;22;20452;-78
2022/03/24 08:25:49;;;;;;;8.20;5.82;;;;;;;;;;6334978;22;19998;-79
2022/03/24 08:28:15;;;;;;;12.50;5.50;;;;;;;;;;6334859;22;20002;-79
2022/03/24 08:30:42;;;;;;;10.10;5.93;;;;;;;;;;6335185;22;20002;-79
2022/03/24 08:33:11;;;;;;;7.00;5.57;;;;;;;;;;6335134;22;20442;-78
2022/03/24 08:35:38;;;;;;;8.00;6.00;;;;;;;;;;6335051;22;20434;-79
2022/03/24 08:38:04;;;;;;;9.93;5.72;;;;;;;;;;6307377;22;20002;-79
2022/03/24 08:40:30;;;;;;;8.85;5.70;;;;;;;;;;6335902;22;20088;-78
2022/03/24 08:42:56;;;;;;;8.93;5.50;;;;;;;;;;6334873;22;20022;-77
2022/03/24 08:45:22;;;;;;;10.05;5.65;;;;;;;;;;6334923;22;20084;-78
2022/03/24 08:47:48;;;;;;;10.10;6.10;;;;;;;;;;6335149;22;20018;-78
2022/03/24 08:50:14;;;;;;;10.18;5.85;;;;;;;;;;6334891;22;20007;-77
2022/03/24 08:52:41;;;;;;;9.13;6.00;;;;;;;;;;6334822;22;20022;-78
2022/03/24 08:55:09;;;;;;;9.48;5.70;;;;;;;;;;6334677;22;20392;-78
2022/03/24 08:57:35;;;;;;;8.13;5.60;;;;;;;;;;6334633;22;20111;-78
2022/03/24 09:00:04;;;;;;;8.02;5.60;;;;;;;;;;6335877;22;20066;-78
2022/03/24 09:02:30;;;;;;;9.75;5.78;;;;;;;;;;6335784;22;19999;-77
2022/03/24 09:04:56;;;;;;;7.10;5.90;;;;;;;;;;6334732;22;20026;-77
2022/03/24 09:07:22;;;;;;;6.95;6.10;;;;;;;;;;6307045;22;20006;-77
2022/03/24 09:09:48;;;;;;;9.13;5.72;;;;;;;;;;6334561;22;20005;-79
2022/03/24 09:12:15;;;;;;;7.43;5.90;;;;;;;;;;6334781;22;20077;-78
2022/03/24 09:14:42;;;;;;;7.53;5.63;;;;;;;;;;6334830;22;20006;-79
2022/03/24 09:17:08;;;;;;;6.93;5.85;;;;;;;;;;6309088;22;19999;-90
2022/03/24 09:19:35;;;;;;;7.50;5.63;;;;;;;;;;6308837;22;20074;-88
2022/03/24 09:22:03;;;;;;;7.82;5.57;;;;;;;;;;6335914;22;20104;-80
2022/03/24 09:24:29;;;;;;;;;;;;;;;;;;6334843;22;20452;-78
2022/03/24 09:26:55;;;;;;;7.18;5.38;;;;;;;;;;6334622;22;20552;-79
2022/03/24 09:29:22;;;;;;;7.72;5.63;;;;;;;;;;6334704;22;19995;-79
2022/03/24 09:31:48;;;;;;;6.15;5.25;;;;;;;;;;6334536;22;20060;-78
2022/03/24 09:34:14;;;;;;;7.93;5.68;;;;;;;;;;6334568;22;20003;-78
2022/03/24 09:36:40;;;;;;;7.82;5.78;;;;;;;;;;6334616;22;20022;-79
2022/03/24 09:39:09;;;;;;;6.93;5.53;;;;;;;;;;6334256;22;20003;-79
2022/03/24 09:41:37;;;;;;;6.60;5.40;;;;;;;;;;6335555;22;20006;-80
2022/03/24 09:44:03;;;;;;;8.23;5.57;;;;;;;;;;6335636;22;20003;-79
2022/03/24 09:46:30;;;;;;;8.00;5.63;;;;;;;;;;6334247;22;20014;-79
2022/03/24 09:48:56;;;;;;;7.22;5.80;;;;;;;;;;6334271;22;20617;-79
2022/03/24 09:51:23;;;;;;;8.98;6.30;;;;;;;;;;6334188;22;20082;-79
2022/03/24 09:53:49;;;;;;;7.53;5.70;;;;;;;;;;6334160;22;19999;-79
2022/03/24 09:56:15;;;;;;;7.57;5.88;;;;;;;;;;6334358;22;19998;-80
2022/03/24 09:58:44;;;;;;;9.32;6.10;;;;;;;;;;6334369;22;19995;-79
2022/03/24 10:01:10;;;;;;;7.35;6.00;;;;;;;;;;6334270;22;20002;-79
2022/03/24 10:03:36;;;;;;;7.38;5.82;;;;;;;;;;6334593;22;20006;-80
2022/03/24 10:06:07;;;;;;;8.13;5.90;;;;;;;;;;6335072;22;20010;-79
2022/03/24 10:08:34;;;;;;;6.97;5.88;;;;;;;;;;6335088;22;20428;-79
2022/03/24 10:11:02;;;;;;;7.32;6.10;;;;;;;;;;6306655;22;20011;-80
2022/03/24 10:13:44;;;;;;;8.80;6.40;;;;;;;;;;6334230;22;20002;-80
2022/03/24 10:16:13;;;;;;;6.85;5.93;;;;;;;;;;6334045;22;20010;-81
2022/03/24 10:18:57;;;;;;;7.70;6.05;;;;;;;;;;6333945;22;20341;-80
2022/03/24 10:21:23;;;;;;;8.15;6.25;;;;;;;;;;6334233;22;20471;-81
2022/03/24 10:23:49;;;;;;;7.47;5.97;;;;;;;;;;6334094;22;20003;-79
2022/03/24 10:26:15;;;;;;;7.10;5.97;;;;;;;;;;6333793;22;20006;-79
2022/03/24 10:28:58;;;;;;;9.02;5.50;;;;;;;;;;6333553;22;20022;-78
2022/03/24 10:31:33;;;;;;;8.43;5.80;;;;;;;;;;6333416;22;20007;-82
2022/03/24 10:33:59;;;;;;;8.02;5.72;;;;;;;;;;6333678;22;20010;-80
2022/03/24 10:36:26;;;;;;;7.63;5.90;;;;;;;;;;6333509;22;20077;-81
2022/03/24 10:38:58;;;;;;;8.43;5.90;;;;;;;;;;6333393;22;19999;-80
2022/03/24 10:41:28;;;;;;;9.25;6.10;;;;;;;;;;6333172;22;20026;-81
2022/03/24 10:43:58;;;;;;;7.65;5.90;;;;;;;;;;6333440;22;19998;-81
2022/03/24 10:46:34;;;;;;;8.88;6.40;;;;;;;;;;6333576;22;20010;-81
2022/03/24 10:49:14;;;;;;;10.95;6.60;;;;;;;;;;6333617;22;20300;-81
2022/03/24 10:51:42;;;;;;;10.00;6.20;;;;;;;;;;6333616;22;20001;-80
2022/03/24 10:54:08;;;;;;;;;;;;;;;;;;6334937;22;20030;-79
2022/03/24 10:56:39;;;;;;;9.80;6.05;;;;;;;;;;6333957;22;19903;-81
2022/03/24 10:59:05;;;;;;;14.63;6.28;;;;;;;;;;6334616;22;19999;-79
2022/03/24 11:01:33;;;;;;;16.17;6.03;;;;;;;;;;6305744;22;19999;-80
2022/03/24 11:03:59;;;;;;;8.27;6.32;;;;;;;;;;6333157;22;20480;-80
2022/03/24 11:06:27;;;;;;;7.10;5.97;;;;;;;;;;6305028;22;20017;-78
2022/03/24 11:08:54;;;;;;;9.20;6.10;;;;;;;;;;6333101;22;20078;-79
2022/03/24 11:11:20;;;;;;;7.93;6.13;;;;;;;;;;6333430;22;20380;-80
2022/03/24 11:13:51;;;;;;;7.43;5.97;;;;;;;;;;6333578;22;20105;-81
2022/03/24 11:16:18;;;;;;;7.63;5.88;;;;;;;;;;6332901;22;20006;-81
2022/03/24 11:18:44;;;;;;;7.15;5.50;;;;;;;;;;6327414;22;20009;-84
2022/03/24 11:21:16;;;;;;;8.40;5.57;;;;;;;;;;6333920;22;20336;-84
2022/03/24 11:23:44;;;;;;;7.75;6.28;;;;;;;;;;6306182;22;20002;-80
2022/03/24 11:26:11;;;;;;;8.07;5.55;;;;;;;;;;6336026;22;20042;-78
2022/03/24 11:28:38;;;;;;;21.10;5.82;;;;;;;;;;6334953;22;20381;-81
2022/03/24 11:31:11;;;;;;;6.32;5.40;;;;;;;;;;6333847;22;20568;-86
2022/03/24 11:33:45;;;;;;;7.95;5.88;;;;;;;;;;6307356;22;20030;-84
2022/03/24 11:36:11;;;;;;;9.48;6.38;;;;;;;;;;6306082;22;20048;-79
2022/03/24 11:38:38;;;;;;;7.25;5.65;;;;;;;;;;6335379;22;20086;-81
2022/03/24 11:41:10;;;;;;;7.32;5.72;;;;;;;;;;6305525;22;20335;-87
2022/03/24 11:43:40;;;;;;;7.50;5.75;;;;;;;;;;6334397;22;20010;-82
2022/03/24 11:46:11;;;;;;;8.18;5.55;;;;;;;;;;6334263;22;20018;-81
2022/03/24 11:48:38;;;;;;;12.25;6.18;;;;;;;;;;6336112;22;20385;-85
2022/03/24 11:51:24;;;;;;;9.35;5.95;;;;;;;;;;6334959;22;20209;-80
2022/03/24 11:54:01;;;;;;;7.95;5.80;;;;;;;;;;6334566;22;19999;-87
2022/03/24 11:56:27;;;;;;;7.80;6.15;;;;;;;;;;6329008;22;19995;-81
2022/03/24 11:58:53;;;;;;;7.15;6.05;;;;;;;;;;6332172;22;20021;-80
2022/03/24 12:01:19;;;;;;;9.05;6.43;;;;;;;;;;6333134;22;20428;-79
2022/03/24 12:03:54;;;;;;;9.02;6.47;;;;;;;;;;6333022;22;20002;-80
2022/03/24 12:06:21;;;;;;;8.93;6.28;;;;;;;;;;6333088;22;20010;-80
2022/03/24 12:08:49;;;;;;;10.48;6.53;;;;;;;;;;6332817;22;19995;-79
2022/03/24 12:11:33;;;;;;;8.68;6.55;;;;;;;;;;6332475;22;20136;-79
2022/03/24 12:13:59;;;;;;;10.75;6.80;;;;;;;;;;6332890;22;19995;-78
2022/03/24 12:16:26;;;;;;;8.15;5.93;;;;;;;;;;6331933;22;20018;-85
2022/03/24 12:18:52;;;;;;;11.25;6.30;;;;;;;;;;6302127;22;19999;-77
2022/03/24 12:21:28;;;;;;;10.18;6.03;;;;;;;;;;6334498;22;20411;-78
2022/03/24 12:24:13;;;;;;;7.72;6.30;;;;;;;;;;6335227;22;20030;-77
2022/03/24 12:26:48;;;;;;;9.38;6.93;;;;;;;;;;6336082;22;20010;-79
2022/03/24 12:29:16;;;;;;;8.90;7.05;;;;;;;;;;6336265;22;20006;-80
2022/03/24 12:32:01;;;;;;;7.80;6.97;;;;;;;;;;6337969;22;20439;-78
2022/03/24 12:34:39;;;;;;;7.82;6.50;;;;;;;;;;6338561;22;20491;-83
2022/03/24 12:37:25;;;;;;;9.85;6.90;;;;;;;;;;6335455;22;20007;-80
2022/03/24 12:40:09;;;;;;;10.02;8.00;;;;;;;;;;6334397;22;19999;-80
2022/03/24 12:42:45;;;;;;;10.57;9.30;;;;;;;;;;6336354;22;20030;-77
2022/03/24 12:45:18;;;;;;;468.08;319.25;;;;;;;;;;6336057;22;20063;-79
2022/03/24 12:47:45;;;;;;;770.25;587.47;;;;;;;;;;6336380;22;20026;-81
2022/03/24 12:50:17;;;;;;;684.58;513.03;;;;;;;;;;6336767;22;19998;-78
2022/03/24 12:52:56;;;;;;;556.00;386.08;;;;;;;;;;6334898;22;20052;-87
2022/03/24 12:55:35;;;;;;;492.73;331.75;;;;;;;;;;6335705;22;20037;-80
2022/03/24 12:58:03;;;;;;;447.75;311.67;;;;;;;;;;6334503;22;20355;-77
2022/03/24 13:00:30;;;;;;;424.50;293.23;;;;;;;;;;6334093;22;20003;-79
2022/03/24 13:02:57;;;;;;;389.27;272.17;;;;;;;;;;6334060;22;20006;-78
2022/03/24 13:05:25;;;;;;;368.75;259.67;;;;;;;;;;6334397;22;19999;-85
2022/03/24 13:07:52;;;;;;;354.75;244.65;;;;;;;;;;6334631;22;20321;-80
2022/03/24 13:10:19;;;;;;;341.33;237.05;;;;;;;;;;6334267;22;20010;-82
2022/03/24 13:12:46;;;;;;;303.38;214.57;;;;;;;;;;6334049;22;20006;-84
2022/03/24 13:15:18;;;;;;;287.50;197.38;;;;;;;;;;6333911;22;20010;-80
2022/03/24 13:17:48;;;;;;;275.55;184.50;;;;;;;;;;6334137;22;20007;-81
2022/03/24 13:20:14;;;;;;;258.48;172.85;;;;;;;;;;6334787;22;20041;-83
2022/03/24 13:22:41;;;;;;;243.48;159.88;;;;;;;;;;6335108;22;20023;-79
2022/03/24 13:25:10;;;;;;;223.15;147.30;;;;;;;;;;6335768;22;20377;-83
2022/03/24 13:27:49;;;;;;;214.50;140.95;;;;;;;;;;6335706;22;20061;-82
2022/03/24 13:30:16;;;;;;;203.48;134.65;;;;;;;;;;6334645;22;20007;-83
2022/03/24 13:32:42;;;;;;;197.40;128.82;;;;;;;;;;6335149;22;19995;-79
2022/03/24 13:35:13;;;;;;;186.32;123.03;;;;;;;;;;6309637;22;20045;-89
2022/03/24 13:37:42;;;;;;;170.77;115.72;;;;;;;;;;6336488;22;20007;-86
2022/03/24 13:40:09;;;;;;;163.35;110.93;;;;;;;;;;6308412;22;20030;-91
2022/03/24 13:42:36;;;;;;;155.20;105.28;;;;;;;;;;6335030;22;20029;-87
2022/03/24 13:45:02;;;;;;;143.07;98.45;;;;;;;;;;6337259;22;20290;-88
2022/03/24 13:47:28;;;;;;;136.93;95.35;;;;;;;;;;6333641;22;20450;-81
2022/03/24 13:49:56;;;;;;;129.45;88.45;;;;;;;;;;6334100;22;20009;-87
2022/03/24 13:52:31;;;;;;;119.43;83.87;;;;;;;;;;6306707;22;20059;-84
2022/03/24 13:55:02;;;;;;;109.82;78.20;;;;;;;;;;6334664;22;20074;-81
2022/03/24 13:57:28;;;;;;;111.45;75.13;;;;;;;;;;6334439;22;20070;-81
2022/03/24 13:59:54;;;;;;;100.25;69.88;;;;;;;;;;6335339;22;20010;-82
2022/03/24 14:02:24;;;;;;;91.57;63.95;;;;;;;;;;6335272;22;20431;-80
2022/03/24 14:05:07;;;;;;;86.18;60.35;;;;;;;;;;6336339;22;20016;-83
2022/03/24 14:07:33;;;;;;;78.63;57.15;;;;;;;;;;6335664;22;20011;-81
2022/03/24 14:09:59;;;;;;;74.05;53.25;;;;;;;;;;6335184;22;19999;-87
2022/03/24 14:12:27;;;;;;;69.80;50.42;;;;;;;;;;6334989;22;20007;-89
2022/03/24 14:14:53;;;;;;;64.27;47.43;;;;;;;;;;6333657;22;20007;-85
2022/03/24 14:17:25;;;;;;;62.22;45.15;;;;;;;;;;6334265;22;20221;-83
2022/03/24 14:19:55;;;;;;;57.22;42.60;;;;;;;;;;6335091;22;20006;-81
2022/03/24 14:22:21;;;;;;;53.78;40.70;;;;;;;;;;6335182;22;19999;-82
2022/03/24 14:24:50;;;;;;;52.10;38.22;;;;;;;;;;6334305;22;20052;-82
2022/03/24 14:27:17;;;;;;;50.83;36.63;;;;;;;;;;6335180;22;20434;-81
2022/03/24 14:30:02;;;;;;;46.92;33.05;;;;;;;;;;6336680;22;20003;-83
2022/03/24 14:32:29;;;;;;;42.85;32.38;;;;;;;;;;6336686;22;19999;-84
2022/03/24 14:35:10;;;;;;;42.88;30.80;;;;;;;;;;6334368;22;19999;-81
2022/03/24 14:37:44;;;;;;;38.60;28.80;;;;;;;;;;6335626;22;20003;-82
2022/03/24 14:40:11;;;;;;;36.38;27.65;;;;;;;;;;6335148;22;19995;-84